createdAt,value
2018-08-18T06:27:09.583Z,19.90
2018-08-18T06:29:37.853Z,20.00
2018-08-18T06:32:07.933Z,20.20
2018-08-18T06:34:36.275Z,20.30
2018-08-18T06:37:18.681Z,20.60
2018-08-18T06:39:53.560Z,20.80
2018-08-18T06:42:42.822Z,20.70
2018-08-18T06:45:14.046Z,20.80
2018-08-18T06:47:42.857Z,21.10
2018-08-18T06:50:13.044Z,21.10
2018-08-18T06:52:41.386Z,21.10
2018-08-18T06:55:14.207Z,21.10
2018-08-18T06:57:46.984Z,21.30
2018-08-18T07:00:19.646Z,21.50
2018-08-18T07:02:47.909Z,21.70
2018-08-18T07:05:17.309Z,21.90
2018-08-18T07:07:46.267Z,22.00
2018-08-18T07:10:28.642Z,21.90
2018-08-18T07:12:59.147Z,22.00
2018-08-18T07:15:30.014Z,22.30
2018-08-18T07:17:58.333Z,22.40
2018-08-18T07:20:26.600Z,22.40
2018-08-18T07:22:55.102Z,22.40
2018-08-18T07:25:23.381Z,22.50
2018-08-18T07:27:56.790Z,22.60
2018-08-18T07:30:25.129Z,22.70
2018-08-18T07:32:53.446Z,22.70
2018-08-18T07:35:21.824Z,22.90
2018-08-18T07:37:50.077Z,23.10
2018-08-18T07:40:21.497Z,23.10
2018-08-18T07:42:54.001Z,23.20
2018-08-18T07:45:22.314Z,23.30
2018-08-18T07:47:50.567Z,23.40
2018-08-18T07:50:18.828Z,23.50
2018-08-18T07:52:47.091Z,23.50
2018-08-18T07:55:15.337Z,23.60
2018-08-18T07:57:48.055Z,23.80
2018-08-18T08:00:16.310Z,23.90
2018-08-18T08:02:44.601Z,23.90
2018-08-18T08:05:12.936Z,24.00
2018-08-18T08:07:41.169Z,24.10
2018-08-18T08:10:09.439Z,24.00
2018-08-18T08:12:37.829Z,24.30
2018-08-18T08:15:05.990Z,24.30
2018-08-18T08:17:34.282Z,24.40
2018-08-18T08:20:02.550Z,24.50
2018-08-18T08:22:30.814Z,24.50
2018-08-18T08:24:59.045Z,24.60
2018-08-18T08:27:27.307Z,24.70
2018-08-18T08:29:55.543Z,24.80
2018-08-18T08:32:23.814Z,25.00
2018-08-18T08:34:52.057Z,25.10
2018-08-18T08:37:20.325Z,25.20
2018-08-18T08:39:48.574Z,25.20
2018-08-18T08:42:16.825Z,25.30
2018-08-18T08:44:45.052Z,25.20
2018-08-18T08:47:14.888Z,25.30
2018-08-18T08:49:43.157Z,25.40
2018-08-18T08:52:11.427Z,25.40
2018-08-18T08:54:40.361Z,25.50
2018-08-18T08:57:10.788Z,25.50
2018-08-18T08:59:40.120Z,25.50
2018-08-18T09:02:11.744Z,25.30
2018-08-18T09:04:40.000Z,25.30
2018-08-18T09:07:09.617Z,25.20
2018-08-18T09:09:37.905Z,25.40
2018-08-18T09:12:06.485Z,25.50
2018-08-18T09:14:34.750Z,25.70
2018-08-18T09:17:03.042Z,26.00
2018-08-18T09:19:31.282Z,26.20
2018-08-18T09:22:02.197Z,26.30
2018-08-18T09:24:31.305Z,26.50
2018-08-18T09:27:01.877Z,26.30
2018-08-18T09:29:34.218Z,26.10
2018-08-18T09:32:02.477Z,26.00
2018-08-18T09:34:31.909Z,25.90
2018-08-18T09:37:00.175Z,25.70
2018-08-18T09:39:33.440Z,25.20
2018-08-18T09:42:03.445Z,25.10
2018-08-18T09:44:33.263Z,24.90
2018-08-18T09:47:01.533Z,25.00
2018-08-18T09:49:30.701Z,25.10
2018-08-18T09:51:59.405Z,25.10
2018-08-18T09:54:28.077Z,25.40
2018-08-18T09:56:56.877Z,25.60
2018-08-18T09:59:25.361Z,25.90
2018-08-18T10:01:53.781Z,25.80
2018-08-18T10:04:22.137Z,26.00
2018-08-18T10:06:50.446Z,26.10
2018-08-18T10:09:18.683Z,26.30
2018-08-18T10:11:46.922Z,26.40
2018-08-18T10:14:15.198Z,26.60
2018-08-18T10:16:43.469Z,26.80
2018-08-18T10:19:11.757Z,26.70
2018-08-18T10:21:40.010Z,26.60
2018-08-18T10:24:08.639Z,26.70
2018-08-18T10:26:36.882Z,26.40
2018-08-18T10:29:14.951Z,26.70
2018-08-18T10:31:49.884Z,26.80
2018-08-18T10:34:19.267Z,26.80
2018-08-18T10:36:50.296Z,27.00
2018-08-18T10:39:18.810Z,26.90
2018-08-18T10:41:59.019Z,26.90
2018-08-18T10:44:27.289Z,26.90
2018-08-18T10:47:08.400Z,26.90
2018-08-18T10:49:47.934Z,26.90
2018-08-18T10:52:28.603Z,27.10
2018-08-18T10:54:57.274Z,26.90
2018-08-18T10:57:36.818Z,26.80
2018-08-18T11:00:14.556Z,26.60
2018-08-18T11:02:43.821Z,26.50
2018-08-18T11:05:12.415Z,26.60
2018-08-18T11:07:40.691Z,26.60
2018-08-18T11:10:09.440Z,26.60
2018-08-18T11:12:39.359Z,26.50
2018-08-18T11:15:11.413Z,26.50
2018-08-18T11:17:39.673Z,26.60
2018-08-18T11:20:13.398Z,26.60
2018-08-18T11:22:46.517Z,26.50
2018-08-18T11:25:14.784Z,26.70
2018-08-18T11:27:43.038Z,26.70
2018-08-18T11:30:11.285Z,26.90
2018-08-18T11:32:39.810Z,27.00
2018-08-18T11:35:08.536Z,26.90
2018-08-18T11:37:51.772Z,26.70
2018-08-18T11:40:20.726Z,26.90
2018-08-18T11:42:49.373Z,26.70
2018-08-18T11:45:18.568Z,26.80
2018-08-18T11:47:58.888Z,26.80
2018-08-18T11:50:27.998Z,26.60
2018-08-18T11:52:56.377Z,26.60
2018-08-18T11:55:24.657Z,26.90
2018-08-18T11:57:54.296Z,27.00
2018-08-18T12:00:22.697Z,27.30
2018-08-18T12:02:51.581Z,27.40
2018-08-18T12:05:19.953Z,27.40
2018-08-18T12:07:49.785Z,27.40
2018-08-18T12:10:18.267Z,27.40
2018-08-18T12:12:46.564Z,27.30
2018-08-18T12:15:14.816Z,27.20
2018-08-18T12:17:54.996Z,27.00
2018-08-18T12:20:23.629Z,27.20
2018-08-18T12:22:53.417Z,27.20
2018-08-18T12:25:21.697Z,27.20
2018-08-18T12:27:50.049Z,27.30
2018-08-18T12:30:31.944Z,27.40
2018-08-18T12:33:04.470Z,27.60
2018-08-18T12:35:33.201Z,27.50
2018-08-18T12:38:01.570Z,27.30
2018-08-18T12:40:30.520Z,27.00
2018-08-18T12:42:58.764Z,26.80
2018-08-18T12:45:27.035Z,26.50
2018-08-18T12:47:59.513Z,26.20
2018-08-18T12:50:27.757Z,26.30
2018-08-18T12:52:57.145Z,26.30
2018-08-18T12:55:25.423Z,26.40
2018-08-18T12:57:53.733Z,26.50
2018-08-18T13:00:21.972Z,26.60
2018-08-18T13:02:53.142Z,26.60
2018-08-18T13:05:23.289Z,26.60
2018-08-18T13:07:53.129Z,26.50
2018-08-18T13:10:24.491Z,26.30
2018-08-18T13:12:53.620Z,26.20
2018-08-18T13:15:21.973Z,26.20
2018-08-18T13:17:50.269Z,26.10
2018-08-18T13:20:22.624Z,26.00
2018-08-18T13:22:50.859Z,26.00
2018-08-18T13:25:19.138Z,26.10
2018-08-18T13:27:51.809Z,26.40
2018-08-18T13:30:20.684Z,26.70
2018-08-18T13:32:49.861Z,27.00
2018-08-18T13:35:18.130Z,27.10
2018-08-18T13:37:46.382Z,27.00
2018-08-18T13:40:14.617Z,26.80
2018-08-18T13:42:43.033Z,26.80
2018-08-18T13:45:12.150Z,26.80
2018-08-18T13:47:40.658Z,26.80
2018-08-18T13:50:11.581Z,26.80
2018-08-18T13:52:45.216Z,27.10
2018-08-18T13:55:13.440Z,27.40
2018-08-18T13:57:41.701Z,27.30
2018-08-18T14:00:11.893Z,27.50
2018-08-18T14:02:40.414Z,27.70
2018-08-18T14:05:11.313Z,27.60
2018-08-18T14:07:54.540Z,27.50
2018-08-18T14:10:22.754Z,27.40
2018-08-18T14:12:51.177Z,27.30
2018-08-18T14:15:19.405Z,27.20
2018-08-18T14:17:47.681Z,27.10
2018-08-18T14:20:15.933Z,27.00
2018-08-18T14:22:44.198Z,26.80
2018-08-18T14:25:12.440Z,26.70
2018-08-18T14:27:41.966Z,26.70
2018-08-18T14:30:10.221Z,26.70
2018-08-18T14:32:38.481Z,26.70
2018-08-18T14:35:07.174Z,26.70
2018-08-18T14:37:36.846Z,26.90
2018-08-18T14:40:07.573Z,27.10
2018-08-18T14:42:35.836Z,27.40
2018-08-18T14:45:04.109Z,27.40
2018-08-18T14:47:32.384Z,27.40
2018-08-18T14:50:14.529Z,27.60
2018-08-18T14:52:44.433Z,27.60
2018-08-18T14:55:12.697Z,27.40
2018-08-18T14:57:47.773Z,27.50
2018-08-18T15:00:16.014Z,27.30
2018-08-18T15:02:44.277Z,27.10
2018-08-18T15:05:12.505Z,26.90
2018-08-18T15:07:46.226Z,26.80
2018-08-18T15:10:30.325Z,26.60
2018-08-18T15:12:59.134Z,26.60
2018-08-18T15:15:27.462Z,26.60
2018-08-18T15:17:59.349Z,26.70
2018-08-18T15:20:29.033Z,26.70
2018-08-18T15:22:57.305Z,26.80
2018-08-18T15:25:25.554Z,26.80
2018-08-18T15:27:53.945Z,26.90
2018-08-18T15:30:22.434Z,27.00
2018-08-18T15:32:50.684Z,27.20
2018-08-18T15:35:18.974Z,27.20
2018-08-18T15:37:47.249Z,27.30
2018-08-18T15:40:15.538Z,27.40
2018-08-18T15:42:44.654Z,27.50
2018-08-18T15:45:12.933Z,27.50
2018-08-18T15:47:41.249Z,27.60
2018-08-18T15:50:09.521Z,27.70
2018-08-18T15:52:37.808Z,27.80
2018-08-18T15:55:06.093Z,27.70
2018-08-18T15:57:34.386Z,27.60
2018-08-18T16:00:02.661Z,27.40
2018-08-18T16:02:30.947Z,27.10
2018-08-18T16:04:59.217Z,26.90
2018-08-18T16:07:27.747Z,26.80
2018-08-18T16:09:56.016Z,26.80
2018-08-18T16:12:24.295Z,26.80
2018-08-18T16:14:52.590Z,26.70
2018-08-18T16:17:21.134Z,26.70
2018-08-18T16:19:49.430Z,26.70
2018-08-18T16:22:17.682Z,26.60
2018-08-18T16:24:46.717Z,26.50
2018-08-18T16:27:14.965Z,26.50
2018-08-18T16:29:43.238Z,26.40
2018-08-18T16:32:23.300Z,26.20
2018-08-18T16:35:00.189Z,26.20
2018-08-18T16:37:28.606Z,26.10
2018-08-18T16:39:57.089Z,26.10
2018-08-18T16:42:25.356Z,26.00
2018-08-18T16:44:53.642Z,26.00
2018-08-18T16:47:21.905Z,25.90
2018-08-18T16:49:50.192Z,25.90
2018-08-18T16:52:18.478Z,25.80
2018-08-18T16:54:46.767Z,25.70
2018-08-18T16:57:15.053Z,25.70
2018-08-18T16:59:43.336Z,25.50
2018-08-18T17:02:27.185Z,25.50
2018-08-18T17:04:55.453Z,25.40
2018-08-18T17:07:26.603Z,25.30
2018-08-18T17:09:55.070Z,25.20
2018-08-18T17:12:26.970Z,25.20
2018-08-18T17:14:55.259Z,25.10
2018-08-18T17:17:24.086Z,25.00
2018-08-18T17:19:52.377Z,24.90
2018-08-18T17:22:20.660Z,24.80
2018-08-18T17:24:49.019Z,24.60
2018-08-18T17:27:17.313Z,24.60
2018-08-18T17:29:47.297Z,24.50
2018-08-18T17:32:15.565Z,24.40
2018-08-18T17:34:43.859Z,24.40
2018-08-18T17:37:12.118Z,24.20
2018-08-18T17:39:40.398Z,24.10
2018-08-18T17:42:08.679Z,24.00
2018-08-18T17:44:36.965Z,23.80
2018-08-18T17:47:06.671Z,23.70
2018-08-18T17:49:42.193Z,23.50
2018-08-18T17:52:10.476Z,23.40
2018-08-18T17:54:38.901Z,23.20
2018-08-18T17:57:07.631Z,23.10
2018-08-18T17:59:36.301Z,22.90
2018-08-18T18:02:09.598Z,22.70
2018-08-18T18:04:37.891Z,22.60
2018-08-18T18:07:07.081Z,22.40
2018-08-18T18:09:35.477Z,22.30
2018-08-18T18:12:27.817Z,22.20
2018-08-18T18:14:56.366Z,22.10
2018-08-18T18:17:25.130Z,21.90
2018-08-18T18:19:55.967Z,21.80
2018-08-18T18:22:24.285Z,21.70
2018-08-18T18:24:52.549Z,21.60
2018-08-18T18:27:20.793Z,21.40
2018-08-18T18:29:49.054Z,21.30
2018-08-18T18:32:17.293Z,21.20
2018-08-18T18:34:47.015Z,21.10
2018-08-18T18:37:15.445Z,20.90
2018-08-18T18:39:54.956Z,20.80
2018-08-18T18:42:23.621Z,20.70
2018-08-18T18:44:51.881Z,20.70
2018-08-18T18:47:20.125Z,20.50
2018-08-18T18:49:48.389Z,20.40
2018-08-18T18:52:16.634Z,20.30
2018-08-18T18:54:44.889Z,20.20
2018-08-18T18:57:13.160Z,20.10
2018-08-18T18:59:47.541Z,20.00
2018-08-18T19:02:16.133Z,19.90
2018-08-18T19:04:44.397Z,19.90
2018-08-18T19:07:12.642Z,19.80
2018-08-18T19:09:40.909Z,19.70
2018-08-18T19:12:09.174Z,19.60
2018-08-18T19:14:37.425Z,19.60
2018-08-18T19:17:05.701Z,19.50
2018-08-18T19:19:33.946Z,19.40
2018-08-18T19:22:02.826Z,19.40
2018-08-18T19:24:31.065Z,19.30
2018-08-18T19:27:00.191Z,19.20
2018-08-18T19:29:29.290Z,19.10
2018-08-18T19:31:58.682Z,19.10
2018-08-18T19:34:27.020Z,19.00
2018-08-18T19:37:05.566Z,19.00
2018-08-18T19:39:34.801Z,18.90
2018-08-18T19:42:19.526Z,18.90
2018-08-18T19:44:48.979Z,18.90
